Island Lookout — WDF6311 — position and weather

sailwx.info

Track history (hours):
 
Tides and Currents Weather Stations Pressure Air Temp Water Temp Dewpoint Dewpoint Depression Visibility Wind Speed Wind Dir Waves Ship Positions

Island Lookout

Owner: Stevens Towing Company Inc., Yonges Island, SC. More information available from US FCC via Universal Licensing System and Coast Guard Vessel Documentation Center.

Last reported at 2014-Nov-27 05:03 UTC. Time now 2014-Nov-27 20:51 UTC.
Position N 38°58' W 076°24'.

Length 22 m; draft 2.9 m.

Type: Towing. MMSI: 367472930.

Date/timePositionNaut miles runAvg speedWind from/ knotsBaromVisibWave heightAir tempDewpointWater temp
2014-Nov-27 05:03N 38°58' W 076°24'4 6.0
2014-Nov-27 04:22N 39°02' W 076°23'5 5.6
2014-Nov-27 03:32N 39°06' W 076°24'5 5.5
2014-Nov-27 02:34N 39°11' W 076°27'6 5.9
2014-Nov-27 01:33N 39°13' W 076°34'1 1.1
2014-Nov-27 00:33N 39°12' W 076°35'0 0.0
2014-Nov-26 23:33N 39°12' W 076°35'0 0.0
2014-Nov-26 22:29N 39°12' W 076°35'0 0.0
2014-Nov-26 21:33N 39°12' W 076°35'0 0.0
2014-Nov-26 20:33N 39°12' W 076°35'0 0.0
2014-Nov-26 19:32N 39°12' W 076°35'3 2.7
2014-Nov-26 18:33N 39°15' W 076°34'2 1.0
2014-Nov-26 16:20N 39°16' W 076°36'0 0.0
2014-Nov-26 15:08N 39°16' W 076°36'0 0.0
2014-Nov-26 14:32N 39°16' W 076°36'3 3.5
2014-Nov-26 13:33N 39°12' W 076°35'0 0.1
2014-Nov-26 12:19N 39°12' W 076°35'0 0.0
2014-Nov-26 11:04N 39°12' W 076°35'0 0.0
2014-Nov-26 10:17N 39°12' W 076°35'2 2.9
2014-Nov-26 09:33N 39°13' W 076°33'6 6.0
2014-Nov-26 08:34N 39°11' W 076°25'7 6.4
2014-Nov-26 07:30N 39°15' W 076°18'50 1.3
2014-Nov-24 16:32N 39°47' W 075°28'8 8.7
2014-Nov-24 15:33N 39°39' W 075°33'6 6.3
2014-Nov-24 14:33N 39°33' W 075°36'8 8.0
2014-Nov-24 13:33N 39°32' W 075°46'45 7.2
2014-Nov-24 07:19N 38°58' W 076°24'  
Track history (hours):
 
Tides and Currents Weather Stations Pressure Air Temp Water Temp Dewpoint Dewpoint Depression Visibility Wind Speed Wind Dir Waves Ship Positions

Island Lookout

Owner: Stevens Towing Company Inc., Yonges Island, SC. More information available from US FCC via Universal Licensing System and Coast Guard Vessel Documentation Center.

Last reported at 2014-Nov-27 05:03 UTC. Time now 2014-Nov-27 20:51 UTC.
Position N 38°58' W 076°24'.

Length 22 m; draft 2.9 m.

Type: Towing. MMSI: 367472930.

Date/timePositionNaut miles runAvg speedWind from/ knotsBaromVisibWave heightAir tempDewpointWater temp
2014-Nov-27 05:03N 38°58' W 076°24'4 6.0
2014-Nov-27 04:22N 39°02' W 076°23'5 5.6
2014-Nov-27 03:32N 39°06' W 076°24'5 5.5
2014-Nov-27 02:34N 39°11' W 076°27'6 5.9
2014-Nov-27 01:33N 39°13' W 076°34'1 1.1
2014-Nov-27 00:33N 39°12' W 076°35'0 0.0
2014-Nov-26 23:33N 39°12' W 076°35'0 0.0
2014-Nov-26 22:29N 39°12' W 076°35'0 0.0
2014-Nov-26 21:33N 39°12' W 076°35'0 0.0
2014-Nov-26 20:33N 39°12' W 076°35'0 0.0
2014-Nov-26 19:32N 39°12' W 076°35'3 2.7
2014-Nov-26 18:33N 39°15' W 076°34'2 1.0
2014-Nov-26 16:20N 39°16' W 076°36'0 0.0
2014-Nov-26 15:08N 39°16' W 076°36'0 0.0
2014-Nov-26 14:32N 39°16' W 076°36'3 3.5
2014-Nov-26 13:33N 39°12' W 076°35'0 0.1
2014-Nov-26 12:19N 39°12' W 076°35'0 0.0
2014-Nov-26 11:04N 39°12' W 076°35'0 0.0
2014-Nov-26 10:17N 39°12' W 076°35'2 2.9
2014-Nov-26 09:33N 39°13' W 076°33'6 6.0
2014-Nov-26 08:34N 39°11' W 076°25'7 6.4
2014-Nov-26 07:30N 39°15' W 076°18'50 1.3
2014-Nov-24 16:32N 39°47' W 075°28'8 8.7
2014-Nov-24 15:33N 39°39' W 075°33'6 6.3
2014-Nov-24 14:33N 39°33' W 075°36'8 8.0
2014-Nov-24 13:33N 39°32' W 075°46'45 7.2
2014-Nov-24 07:19N 38°58' W 076°24'  

Dump ship's entire track history